Terminal Aerodrome Forecast
Issued by NWS

Home | Current Version | Previous Version | Text Only | Print | Product List | Glossary On
Versions: 1 2 3 4 5 6 7 8 9 10 11 12 13
000
FTUS45 KRIW 042322
TAFCOD
TAF
KCOD 042322Z 0500/0524 VRB06KT P6SM FEW070 SCT100
     FM050800 36010G18KT P6SM VCSH SCT070 BKN100
     FM051900 35015G23KT P6SM VCTS SCT040CB BKN080
      AMD LTD TO CLD VIS AND WIND=

USA.gov is the U.S. government's official web portal to all federal, state and local government web resources and services.